LFOC 221330Z AUTO 23017KT 9999 ////// 13/07 Q1028

ElémentsDécodage
LFOC Station météo située sur l'aérodrome de CHATEAUDUN
221330Z émis le 22 du mois à 13h30 UTC
AUTO Bulletin édité par un automate
23017KT vent du 230°, 17 noeuds
9999 visibilité horizontale supérieure à 10 Km
////// nébulosité (type et hauteur) non disponible
 type de nuage non observable
13/07 température 13°C, point de rosée 07°C
 soit une humidité relative de 67%
Q1028 la pression au niveau de la mer (QNH) est de 1028 hPa